< < Back
Terminal Aerodrome Forecast


Current Version              Previous Versions:   1  2  3  4  5  6  7  8  9  

Terminal Aerodrome Forecast

278
FTUS42 KJAX 010500 RRA
TAFJAX
TAF
KJAX 010541Z 0106/0206 00000KT P6SM BKN060
     FM010900 02003KT 6SM BR SCT025 BKN050
     FM011300 03005KT P6SM BKN035
     FM011800 06008KT P6SM BKN040=



Latest METAR

927
SAUS80 KWBC 011200 CCA
MTRJAX
METAR KJAX 011156Z 04003KT 10SM BKN060 22/21 A2993 RMK AO2 SLP135
T02220211 10222 20211 53015


USA.gov is the U.S. government's official web portal to all federal, state and local government web resources and services.